KLM546 EHAM-KLAS
Flight info
| Callsign | KLM546 |
|---|---|
| Flight time | N/A |
| Altitude | 32000 |
| Route | BERGI3N BERGI L602 NALAX L46 GETNO DCT NIBOG DCT ETARI/M083F320 DCT 56N020W 5630N03000W 5630N04000W 56N050W DCT JANJO/N0481F320 DCT DENSO/N0467F340 DCT AGLOL/N0479F360 DCT MERNU DCT XEXUL DCT BLUOX DCT RAP J158 DDY/N0473F380 J107 BERYL/N0468F370 DCT STEWW CHOWW4 |
| Aircraft | B77W/H-SDE1E2E3FGHIJ2J3J4J5M1RWXY/LB1D1 |
Departure
| Time | N/A |
|---|---|
| Airport | Amsterdam Airport Schiphol (EHAM) |
Arrival
| Time | 2026-05-01 12:07 |
|---|---|
| Airport | Harry Reid International Airport (KLAS) |
| Time | Latitude | Longitude | Altitude | Speed | Heading |
|---|---|---|---|---|---|
| 2026-05-01 11:39 | 38.24424 | -113.10774 | 36010 ft | 484 kts | 218° |
| 2026-05-01 11:39 | 38.13533 | -113.19555 | 35771 ft | 436 kts | 218° |
| 2026-05-01 11:39 | 38.03836 | -113.27422 | 35938 ft | 405 kts | 219° |
| 2026-05-01 11:39 | 37.94016 | -113.35372 | 36267 ft | 434 kts | 218° |
| 2026-05-01 11:40 | 37.82433 | -113.40536 | 36171 ft | 484 kts | 195° |
| 2026-05-01 11:40 | 37.75774 | -113.41975 | 36088 ft | 487 kts | 195° |
| 2026-05-01 11:41 | 37.69113 | -113.43424 | 36048 ft | 484 kts | 195° |
| 2026-05-01 11:41 | 37.62498 | -113.44926 | 36020 ft | 480 kts | 196° |
| 2026-05-01 11:41 | 37.59271 | -113.45665 | 35908 ft | 471 kts | 196° |
| 2026-05-01 11:42 | 37.56060 | -113.46400 | 35776 ft | 464 kts | 196° |
| 2026-05-01 11:42 | 37.52900 | -113.47126 | 35538 ft | 459 kts | 196° |
| 2026-05-01 11:42 | 37.49775 | -113.47845 | 35209 ft | 455 kts | 196° |
| 2026-05-01 11:42 | 37.46720 | -113.48547 | 34820 ft | 451 kts | 197° |
| 2026-05-01 11:43 | 37.43644 | -113.49251 | 34402 ft | 448 kts | 197° |
| 2026-05-01 11:43 | 37.40594 | -113.49949 | 33972 ft | 445 kts | 197° |
| 2026-05-01 11:43 | 37.37560 | -113.50643 | 33466 ft | 442 kts | 196° |
| 2026-05-01 11:44 | 37.31571 | -113.52012 | 32587 ft | 434 kts | 196° |
| 2026-05-01 11:44 | 37.28606 | -113.52687 | 32135 ft | 431 kts | 196° |
| 2026-05-01 11:44 | 37.25678 | -113.53353 | 31751 ft | 426 kts | 197° |
| 2026-05-01 11:44 | 37.22862 | -113.54340 | 31310 ft | 414 kts | 208° |
| 2026-05-01 11:45 | 37.20267 | -113.55835 | 30916 ft | 407 kts | 212° |
| 2026-05-01 11:45 | 37.17739 | -113.57405 | 30506 ft | 404 kts | 212° |
| 2026-05-01 11:45 | 37.15230 | -113.58962 | 30101 ft | 402 kts | 212° |
| 2026-05-01 11:45 | 37.12752 | -113.60466 | 29616 ft | 400 kts | 211° |
| 2026-05-01 11:46 | 37.10214 | -113.61976 | 29187 ft | 398 kts | 211° |
| 2026-05-01 11:46 | 37.07710 | -113.63445 | 28753 ft | 397 kts | 210° |
| 2026-05-01 11:46 | 37.05247 | -113.64878 | 28337 ft | 395 kts | 210° |
| 2026-05-01 11:46 | 37.02768 | -113.66318 | 27909 ft | 394 kts | 210° |
| 2026-05-01 11:47 | 37.00276 | -113.67764 | 27482 ft | 393 kts | 210° |
| 2026-05-01 11:47 | 36.97804 | -113.69197 | 27056 ft | 392 kts | 210° |
| 2026-05-01 11:47 | 36.95341 | -113.70626 | 26629 ft | 391 kts | 210° |
| 2026-05-01 11:47 | 36.92881 | -113.72056 | 26211 ft | 390 kts | 211° |
| 2026-05-01 11:48 | 36.90416 | -113.73495 | 25785 ft | 390 kts | 211° |
| 2026-05-01 11:48 | 36.87970 | -113.74924 | 25357 ft | 390 kts | 211° |
| 2026-05-01 11:48 | 36.85517 | -113.76356 | 24936 ft | 390 kts | 211° |
| 2026-05-01 11:48 | 36.83060 | -113.77790 | 24522 ft | 391 kts | 211° |
| 2026-05-01 11:49 | 36.80596 | -113.79227 | 24101 ft | 392 kts | 210° |
| 2026-05-01 11:49 | 36.78122 | -113.80667 | 23661 ft | 393 kts | 210° |
| 2026-05-01 11:49 | 36.75638 | -113.82112 | 23170 ft | 394 kts | 210° |
| 2026-05-01 11:49 | 36.73152 | -113.83556 | 22692 ft | 394 kts | 210° |
| 2026-05-01 11:50 | 36.70676 | -113.84993 | 22261 ft | 393 kts | 210° |
| 2026-05-01 11:50 | 36.68193 | -113.86434 | 21821 ft | 392 kts | 210° |
| 2026-05-01 11:50 | 36.65721 | -113.87869 | 21390 ft | 392 kts | 209° |
| 2026-05-01 11:50 | 36.63254 | -113.89298 | 20940 ft | 391 kts | 209° |
| 2026-05-01 11:51 | 36.60788 | -113.90728 | 20521 ft | 390 kts | 209° |
| 2026-05-01 11:51 | 36.58514 | -113.92435 | 20075 ft | 380 kts | 225° |
| 2026-05-01 11:51 | 36.56857 | -113.94908 | 19663 ft | 367 kts | 238° |
| 2026-05-01 11:51 | 36.55353 | -113.97480 | 19239 ft | 369 kts | 237° |
| 2026-05-01 11:52 | 36.53798 | -114.00028 | 18816 ft | 370 kts | 236° |
| 2026-05-01 11:52 | 36.52228 | -114.02565 | 18398 ft | 371 kts | 235° |
| 2026-05-01 11:52 | 36.50647 | -114.05109 | 17886 ft | 372 kts | 235° |
| 2026-05-01 11:52 | 36.49065 | -114.07651 | 17406 ft | 373 kts | 235° |
| 2026-05-01 11:53 | 36.47475 | -114.10206 | 16956 ft | 374 kts | 235° |
| 2026-05-01 11:53 | 36.45886 | -114.12759 | 16517 ft | 374 kts | 235° |
| 2026-05-01 11:53 | 36.44295 | -114.15315 | 16081 ft | 374 kts | 234° |
| 2026-05-01 11:53 | 36.42723 | -114.17839 | 15654 ft | 374 kts | 234° |
| 2026-05-01 11:54 | 36.41131 | -114.20392 | 15270 ft | 373 kts | 234° |
| 2026-05-01 11:54 | 36.39555 | -114.22916 | 15108 ft | 366 kts | 234° |
| 2026-05-01 11:54 | 36.37990 | -114.25395 | 14832 ft | 363 kts | 234° |
| 2026-05-01 11:54 | 36.36430 | -114.27839 | 14639 ft | 357 kts | 233° |
| 2026-05-01 11:55 | 36.34910 | -114.30214 | 14524 ft | 345 kts | 233° |
| 2026-05-01 11:55 | 36.33443 | -114.32507 | 14437 ft | 334 kts | 234° |
| 2026-05-01 11:55 | 36.32031 | -114.34719 | 14311 ft | 324 kts | 234° |
| 2026-05-01 11:55 | 36.30653 | -114.36878 | 14143 ft | 316 kts | 234° |
| 2026-05-01 11:56 | 36.29296 | -114.39005 | 13840 ft | 314 kts | 234° |
| 2026-05-01 11:56 | 36.27932 | -114.41141 | 13486 ft | 317 kts | 234° |
| 2026-05-01 11:56 | 36.26564 | -114.43277 | 13267 ft | 315 kts | 234° |
| 2026-05-01 11:56 | 36.25204 | -114.45400 | 13086 ft | 313 kts | 234° |
| 2026-05-01 11:57 | 36.23842 | -114.47497 | 12830 ft | 312 kts | 233° |
| 2026-05-01 11:57 | 36.22938 | -114.48881 | 12665 ft | 312 kts | 233° |
| 2026-05-01 11:57 | 36.21113 | -114.51675 | 12361 ft | 311 kts | 233° |
| 2026-05-01 11:57 | 36.19764 | -114.53740 | 12264 ft | 305 kts | 233° |
| 2026-05-01 11:58 | 36.18442 | -114.55763 | 12170 ft | 300 kts | 233° |
| 2026-05-01 11:58 | 36.17137 | -114.57759 | 12028 ft | 297 kts | 233° |
| 2026-05-01 11:58 | 36.14530 | -114.61751 | 11527 ft | 304 kts | 233° |
| 2026-05-01 11:59 | 36.13194 | -114.63795 | 10979 ft | 306 kts | 233° |
| 2026-05-01 11:59 | 36.11857 | -114.65836 | 10248 ft | 304 kts | 233° |
| 2026-05-01 11:59 | 36.10553 | -114.67825 | 9499 ft | 300 kts | 233° |
| 2026-05-01 12:00 | 36.07969 | -114.71753 | 8299 ft | 287 kts | 233° |
| 2026-05-01 12:00 | 36.06691 | -114.73704 | 8138 ft | 292 kts | 233° |
| 2026-05-01 12:00 | 36.04290 | -114.77680 | 7921 ft | 279 kts | 253° |
| 2026-05-01 12:01 | 36.04111 | -114.79947 | 7792 ft | 259 kts | 288° |
| 2026-05-01 12:01 | 36.04681 | -114.81870 | 7636 ft | 244 kts | 295° |
| 2026-05-01 12:01 | 36.05213 | -114.83836 | 7454 ft | 239 kts | 292° |
| 2026-05-01 12:01 | 36.05703 | -114.85787 | 7272 ft | 244 kts | 294° |
| 2026-05-01 12:02 | 36.06219 | -114.87847 | 7314 ft | 258 kts | 293° |
| 2026-05-01 12:02 | 36.06737 | -114.89901 | 7229 ft | 242 kts | 292° |
| 2026-05-01 12:02 | 36.07306 | -114.92057 | 7028 ft | 4200 kts | 290° |
| 2026-05-01 12:02 | 36.07048 | -114.91507 | 6032 ft | 218 kts | 284° |
| 2026-05-01 12:03 | 36.07230 | -114.93301 | 5698 ft | 205 kts | 281° |
| 2026-05-01 12:03 | 36.07340 | -114.95040 | 5224 ft | 200 kts | 278° |
| 2026-05-01 12:03 | 36.07376 | -114.96779 | 5129 ft | 206 kts | 276° |
| 2026-05-01 12:03 | 36.07379 | -114.98577 | 4675 ft | 214 kts | 275° |
| 2026-05-01 12:04 | 36.07363 | -115.00390 | 4286 ft | 207 kts | 273° |
| 2026-05-01 12:04 | 36.07269 | -115.02132 | 3932 ft | 196 kts | 271° |
| 2026-05-01 12:04 | 36.07224 | -115.03724 | 3601 ft | 176 kts | 274° |
| 2026-05-01 12:04 | 36.07225 | -115.05131 | 3310 ft | 156 kts | 274° |
| 2026-05-01 12:05 | 36.07260 | -115.06431 | 3129 ft | 151 kts | 275° |
| 2026-05-01 12:05 | 36.07320 | -115.08613 | 2838 ft | 153 kts | 273° |
| 2026-05-01 12:05 | 36.07345 | -115.09923 | 2548 ft | 151 kts | 272° |
| 2026-05-01 12:06 | 36.07357 | -115.11219 | 2354 ft | 150 kts | 271° |
| 2026-05-01 12:06 | 36.07365 | -115.12501 | 2132 ft | 151 kts | 270° |
| 2026-05-01 12:06 | 36.07362 | -115.13741 | 2081 ft | 134 kts | 269° |
| 2026-05-01 12:06 | 36.07358 | -115.14770 | 2099 ft | 108 kts | 268° |
| 2026-05-01 12:07 | 36.07359 | -115.15484 | 2114 ft | 55 kts | 270° |
| 2026-05-01 12:07 | 36.07360 | -115.15883 | 2129 ft | 39 kts | 271° |
| 2026-05-01 12:07 | 36.08531 | -115.13619 | 2097 ft | 0 kts | 360° |